< < Back
Terminal Aerodrome Forecast


Current Version              Previous Versions:   1  2  3  4  5  6  7  8  9  

Terminal Aerodrome Forecast

854
FTUS42 KGSP 030530
TAFAND
TAF
KAND 030530Z 0306/0406 00000KT P6SM SKC
     FM031800 22006KT P6SM SCT060
     FM040200 16003KT P6SM SCT250=



Latest METAR

204
SAUS70 KWBC 030800 RRA
MTRAND
METAR KAND 030756Z AUTO 00000KT 10SM CLR 11/09 A3009 RMK AO2 SLP183
T01110089


USA.gov is the U.S. government's official web portal to all federal, state and local government web resources and services.